Time;durP1;ratioP1;P1;durP2;ratioP2;P2;SDS_P1;SDS_P2;PMS_P1;PMS_P2;Temp;Humidity;BMP_temperature;BMP_pressure;BME280_temperature;BME280_humidity;BME280_pressure;Samples;Min_cycle;Max_cycle;Signal;HPM_P1;HPM_P2
2021/09/06 00:02:15;;;;;;;16.17;11.30;;;15.30;99.90;;;;;;5032383;28;20227;-73
2021/09/06 00:04:41;;;;;;;15.07;10.37;;;15.20;99.90;;;;;;5036059;28;20176;-73
2021/09/06 00:07:06;;;;;;;17.10;11.77;;;15.20;99.90;;;;;;5032405;28;20173;-73
2021/09/06 00:09:32;;;;;;;17.90;11.07;;;15.20;99.90;;;;;;5032174;28;20165;-73
2021/09/06 00:11:58;;;;;;;16.47;11.33;;;15.20;99.90;;;;;;5032204;28;20211;-73
2021/09/06 00:14:24;;;;;;;16.00;11.03;;;15.20;99.90;;;;;;5038167;28;20930;-73
2021/09/06 00:16:50;;;;;;;17.97;13.00;;;15.20;99.90;;;;;;5055199;28;20406;-73
2021/09/06 00:19:15;;;;;;;20.53;14.40;;;15.10;99.90;;;;;;5055241;28;20156;-73
2021/09/06 00:21:41;;;;;;;22.43;13.97;;;15.10;99.90;;;;;;5056047;28;20184;-73
2021/09/06 00:24:07;;;;;;;16.00;11.93;;;15.10;99.90;;;;;;5056076;28;20243;-73
2021/09/06 00:26:32;;;;;;;17.50;11.60;;;15.10;99.90;;;;;;5038102;28;20192;-73
2021/09/06 00:28:58;;;;;;;18.00;12.20;;;15.00;99.90;;;;;;5036293;28;20181;-73
2021/09/06 00:31:24;;;;;;;19.83;13.23;;;15.00;99.90;;;;;;5039057;28;20200;-73
2021/09/06 00:33:50;;;;;;;19.33;11.60;;;15.00;99.90;;;;;;5054994;28;20979;-73
2021/09/06 00:36:16;;;;;;;18.10;11.80;;;15.00;99.90;;;;;;5055992;28;20255;-73
2021/09/06 00:38:42;;;;;;;17.53;12.03;;;15.00;99.90;;;;;;5055724;28;20427;-73
2021/09/06 00:41:08;;;;;;;23.37;11.93;;;15.00;99.90;;;;;;5055549;28;20184;-73
2021/09/06 00:43:33;;;;;;;16.60;11.90;;;14.90;99.90;;;;;;5056074;28;20907;-73
2021/09/06 00:45:59;;;;;;;15.07;11.60;;;14.90;99.90;;;;;;5055552;28;20148;-73
2021/09/06 00:48:26;;;;;;;22.23;13.03;;;14.90;99.90;;;;;;5054762;28;20176;-73
2021/09/06 00:50:54;;;;;;;21.40;13.63;;;14.80;99.90;;;;;;5054629;28;20263;-73
2021/09/06 00:53:20;;;;;;;17.40;12.20;;;14.90;99.90;;;;;;5055346;28;20450;-73
2021/09/06 00:55:46;;;;;;;20.67;13.00;;;14.80;99.90;;;;;;5055397;28;20868;-73
2021/09/06 00:58:12;;;;;;;16.77;11.13;;;14.80;99.90;;;;;;5055358;28;20390;-73
2021/09/06 01:00:38;;;;;;;18.50;13.23;;;14.80;99.90;;;;;;5047618;28;20177;-73
2021/09/06 01:03:03;;;;;;;17.63;12.07;;;14.80;99.90;;;;;;5039835;28;20437;-73
2021/09/06 01:05:29;;;;;;;20.20;13.17;;;14.80;99.90;;;;;;5039022;28;20532;-73
2021/09/06 01:07:56;;;;;;;18.77;11.80;;;14.70;99.90;;;;;;5035845;28;20267;-73
2021/09/06 01:10:22;;;;;;;16.50;11.27;;;14.70;99.90;;;;;;5035301;28;20403;-73
2021/09/06 01:12:49;;;;;;;18.60;12.00;;;14.70;99.90;;;;;;5035260;28;20539;-73
2021/09/06 01:15:14;;;;;;;18.30;12.27;;;14.70;99.90;;;;;;5034904;28;20412;-73
2021/09/06 01:17:41;;;;;;;15.50;11.40;;;14.70;99.90;;;;;;5035194;28;20419;-73
2021/09/06 01:20:08;;;;;;;19.03;13.00;;;14.70;99.90;;;;;;5035221;28;20424;-73
2021/09/06 01:22:34;;;;;;;18.53;11.80;;;14.70;99.90;;;;;;5040519;28;20423;-73
2021/09/06 01:25:00;;;;;;;15.70;10.73;;;14.60;99.90;;;;;;5035562;28;20442;-73
2021/09/06 01:27:25;;;;;;;17.07;11.40;;;14.60;99.90;;;;;;5035338;28;20157;-73
2021/09/06 01:29:51;;;;;;;18.50;12.00;;;14.60;99.90;;;;;;5034920;28;20279;-73
2021/09/06 01:32:17;;;;;;;16.20;11.90;;;14.60;99.90;;;;;;5034839;28;20247;-73
2021/09/06 01:34:42;;;;;;;17.50;11.33;;;14.60;99.90;;;;;;5034768;28;20164;-72
2021/09/06 01:37:08;;;;;;;18.30;13.40;;;14.60;99.90;;;;;;5034502;28;20169;-72
2021/09/06 01:39:33;;;;;;;19.70;12.07;;;14.60;99.90;;;;;;5039229;28;20242;-72
2021/09/06 01:41:59;;;;;;;16.50;10.93;;;14.50;99.90;;;;;;5053819;28;20207;-72
2021/09/06 01:44:25;;;;;;;19.23;12.27;;;14.50;99.90;;;;;;5054480;28;20164;-72
2021/09/06 01:46:51;;;;;;;16.37;10.83;;;14.50;99.90;;;;;;5054522;28;20160;-72
2021/09/06 01:49:16;;;;;;;18.87;12.27;;;14.40;99.90;;;;;;5052022;28;20399;-72
2021/09/06 01:51:42;;;;;;;16.20;11.67;;;14.40;99.90;;;;;;5034269;28;20215;-72
2021/09/06 01:54:09;;;;;;;20.07;13.93;;;14.40;99.90;;;;;;5035534;28;20172;-72
2021/09/06 01:56:35;;;;;;;20.67;12.70;;;14.40;99.90;;;;;;5035224;28;20176;-72
2021/09/06 01:59:01;;;;;;;19.20;13.20;;;14.40;99.90;;;;;;5034839;28;20438;-72
2021/09/06 02:01:26;;;;;;;18.30;11.33;;;14.40;99.90;;;;;;5034245;28;20404;-72
2021/09/06 02:03:52;;;;;;;18.17;11.43;;;14.40;99.90;;;;;;5034104;28;20189;-72
2021/09/06 02:06:17;;;;;;;18.00;12.17;;;14.40;99.90;;;;;;5034145;28;20253;-72
2021/09/06 02:08:43;;;;;;;18.40;11.90;;;14.30;99.90;;;;;;5034131;28;20540;-72
2021/09/06 02:11:09;;;;;;;16.67;10.87;;;14.30;99.90;;;;;;5034214;28;20571;-72
2021/09/06 02:13:35;;;;;;;17.17;12.70;;;14.30;99.90;;;;;;5034597;28;20173;-72
2021/09/06 02:16:00;;;;;;;17.33;12.40;;;14.30;99.90;;;;;;5038507;28;20180;-72
2021/09/06 02:18:26;;;;;;;20.03;13.27;;;14.30;99.90;;;;;;5053868;28;20171;-72
2021/09/06 02:20:51;;;;;;;20.60;12.87;;;14.30;99.90;;;;;;5034560;28;20639;-72
2021/09/06 02:23:17;;;;;;;18.47;11.97;;;14.30;99.90;;;;;;5052367;28;20267;-72
2021/09/06 02:25:43;;;;;;;16.93;12.70;;;14.30;99.90;;;;;;5037888;28;20259;-72
2021/09/06 02:28:08;;;;;;;19.10;12.57;;;14.20;99.90;;;;;;5034608;28;20169;-72
2021/09/06 02:30:34;;;;;;;20.33;14.03;;;14.20;99.90;;;;;;5037492;28;20719;-72
2021/09/06 02:33:00;;;;;;;16.67;12.00;;;14.20;99.90;;;;;;5052701;28;20210;-72
2021/09/06 02:35:25;;;;;;;19.00;13.47;;;14.20;99.90;;;;;;5039168;28;20400;-72
2021/09/06 02:37:51;;;;;;;19.47;12.80;;;14.20;99.90;;;;;;5033360;28;20164;-72
2021/09/06 02:40:17;;;;;;;18.57;12.17;;;14.20;99.90;;;;;;5034139;28;20169;-72
2021/09/06 02:42:44;;;;;;;15.07;11.27;;;14.20;99.90;;;;;;5033434;28;20168;-72
2021/09/06 02:45:10;;;;;;;17.53;12.07;;;14.20;99.90;;;;;;5033546;28;20399;-72
2021/09/06 02:47:36;;;;;;;17.30;11.77;;;14.10;99.90;;;;;;5033888;28;20885;-72
2021/09/06 02:50:03;;;;;;;19.13;13.03;;;14.10;99.90;;;;;;5034615;28;20422;-72
2021/09/06 02:52:31;;;;;;;19.67;14.47;;;14.10;99.90;;;;;;5033072;28;20467;-72
2021/09/06 02:54:57;;;;;;;16.90;11.57;;;14.10;99.90;;;;;;5034171;28;20399;-71
2021/09/06 02:57:23;;;;;;;16.67;11.73;;;14.10;99.90;;;;;;5033403;28;20761;-71
2021/09/06 02:59:48;;;;;;;18.17;11.97;;;14.00;99.90;;;;;;5033115;28;20200;-72
2021/09/06 03:02:14;;;;;;;18.20;13.03;;;14.00;99.90;;;;;;5032066;28;20208;-71
2021/09/06 03:04:39;;;;;;;17.80;13.07;;;14.00;99.90;;;;;;5038112;28;20720;-71
2021/09/06 03:07:05;;;;;;;17.00;12.10;;;14.00;99.90;;;;;;5052078;28;20176;-71
2021/09/06 03:09:30;;;;;;;18.77;12.40;;;14.00;99.90;;;;;;5052864;28;20171;-71
2021/09/06 03:11:56;;;;;;;20.67;12.50;;;14.00;99.90;;;;;;5052990;28;20192;-71
2021/09/06 03:14:21;;;;;;;20.57;12.50;;;14.00;99.90;;;;;;5052994;28;20156;-71
2021/09/06 03:16:47;;;;;;;20.17;12.77;;;14.00;99.90;;;;;;5052820;28;20278;-71
2021/09/06 03:19:12;;;;;;;19.47;13.00;;;14.00;99.90;;;;;;5045088;28;20753;-71
2021/09/06 03:21:38;;;;;;;18.07;12.87;;;14.00;99.90;;;;;;5033628;28;20247;-71
2021/09/06 03:24:04;;;;;;;17.77;12.73;;;13.90;99.90;;;;;;5033517;28;20188;-71
2021/09/06 03:26:29;;;;;;;17.20;12.57;;;13.90;99.90;;;;;;5032753;28;20596;-71
2021/09/06 03:28:55;;;;;;;18.87;12.30;;;13.90;99.90;;;;;;5032997;28;20153;-71
2021/09/06 03:31:20;;;;;;;21.17;12.70;;;13.90;99.90;;;;;;5032651;28;20650;-71
2021/09/06 03:33:46;;;;;;;20.03;13.40;;;13.90;99.90;;;;;;5032816;28;20168;-71
2021/09/06 03:36:12;;;;;;;19.33;12.60;;;13.90;99.90;;;;;;5052862;28;20152;-72
2021/09/06 03:38:37;;;;;;;17.97;12.23;;;13.90;99.90;;;;;;5051766;28;20241;-71
2021/09/06 03:41:03;;;;;;;18.00;11.80;;;13.80;99.90;;;;;;5051925;28;20188;-71
2021/09/06 03:43:29;;;;;;;17.10;12.00;;;13.80;99.90;;;;;;5052489;28;20152;-71
2021/09/06 03:45:54;;;;;;;19.73;13.00;;;13.80;99.90;;;;;;5052304;28;20156;-71
2021/09/06 03:48:20;;;;;;;21.13;14.10;;;13.80;99.90;;;;;;5052417;28;20318;-71
2021/09/06 03:50:45;;;;;;;23.20;13.57;;;13.80;99.90;;;;;;5052421;28;20575;-71
2021/09/06 03:53:12;;;;;;;19.53;12.07;;;13.80;99.90;;;;;;5052391;28;20264;-71
2021/09/06 03:55:38;;;;;;;16.60;11.80;;;13.70;99.90;;;;;;5051620;28;20179;-71
2021/09/06 03:58:04;;;;;;;17.53;12.30;;;13.70;99.90;;;;;;5051581;28;20418;-71
2021/09/06 04:00:29;;;;;;;20.43;13.70;;;13.70;99.90;;;;;;5044194;28;20810;-71
2021/09/06 04:02:55;;;;;;;15.90;10.40;;;13.70;99.90;;;;;;5032603;28;20249;-72
2021/09/06 04:05:20;;;;;;;19.43;12.70;;;13.70;99.90;;;;;;5043778;28;20183;-71
2021/09/06 04:07:46;;;;;;;19.60;12.80;;;13.70;99.90;;;;;;5052612;28;20160;-71
2021/09/06 04:10:12;;;;;;;16.20;11.50;;;13.70;99.90;;;;;;5052474;28;20195;-71
2021/09/06 04:12:37;;;;;;;17.57;11.77;;;13.70;99.90;;;;;;5051388;28;20307;-71
2021/09/06 04:15:04;;;;;;;17.23;12.27;;;13.60;99.90;;;;;;5051086;28;20234;-71
2021/09/06 04:17:30;;;;;;;17.60;12.07;;;13.60;99.90;;;;;;5052089;28;20161;-71
2021/09/06 04:19:56;;;;;;;13.93;10.90;;;13.60;99.90;;;;;;5036689;28;20415;-71
2021/09/06 04:22:22;;;;;;;20.03;12.93;;;13.60;99.90;;;;;;5032466;28;20399;-71
2021/09/06 04:24:47;;;;;;;20.67;13.27;;;13.60;99.90;;;;;;5032442;28;20419;-71
2021/09/06 04:27:13;;;;;;;17.20;11.90;;;13.50;99.90;;;;;;5032085;28;20530;-71
2021/09/06 04:29:38;;;;;;;20.27;13.17;;;13.50;99.90;;;;;;5032258;28;20196;-71
2021/09/06 04:32:05;;;;;;;21.37;13.00;;;13.50;99.90;;;;;;5039042;28;20208;-71
2021/09/06 04:34:31;;;;;;;19.30;12.43;;;13.50;99.90;;;;;;5032172;28;20641;-71
2021/09/06 04:36:56;;;;;;;20.50;13.03;;;13.50;99.90;;;;;;5032064;28;20399;-71
2021/09/06 04:39:22;;;;;;;19.20;12.70;;;13.50;99.90;;;;;;5031913;28;20180;-71
2021/09/06 04:41:48;;;;;;;16.47;11.63;;;13.50;99.90;;;;;;5031993;28;20172;-71
2021/09/06 04:44:13;;;;;;;20.30;12.40;;;13.50;99.90;;;;;;5032276;28;20630;-71
2021/09/06 04:46:39;;;;;;;20.53;13.90;;;13.50;99.90;;;;;;5037116;28;20706;-71
2021/09/06 04:49:04;;;;;;;20.83;12.53;;;13.50;99.90;;;;;;5050922;28;20188;-71
2021/09/06 04:51:30;;;;;;;20.30;12.63;;;13.50;99.90;;;;;;5051805;28;20204;-71
2021/09/06 04:53:56;;;;;;;17.30;12.50;;;13.50;99.90;;;;;;5051933;28;20149;-71
2021/09/06 04:56:23;;;;;;;18.50;12.30;;;13.50;99.90;;;;;;5051897;28;20160;-71
2021/09/06 04:58:49;;;;;;;19.10;13.10;;;13.50;99.90;;;;;;5052101;28;20207;-71
2021/09/06 05:01:16;;;;;;;19.67;12.20;;;13.50;99.90;;;;;;5039821;28;20422;-71
2021/09/06 05:03:42;;;;;;;18.23;12.10;;;13.50;99.90;;;;;;5041072;28;20413;-71
2021/09/06 05:06:07;;;;;;;22.77;14.33;;;13.50;99.90;;;;;;5038590;28;20415;-71
2021/09/06 05:08:33;;;;;;;20.57;13.17;;;13.50;99.90;;;;;;5036923;28;20925;-71
2021/09/06 05:10:59;;;;;;;21.53;12.87;;;13.50;99.90;;;;;;5055301;28;20157;-71
2021/09/06 05:13:25;;;;;;;18.80;13.33;;;13.50;99.90;;;;;;5055359;28;20265;-71
2021/09/06 05:15:51;;;;;;;17.50;11.70;;;13.40;99.90;;;;;;5055317;28;20157;-71
2021/09/06 05:18:16;;;;;;;17.50;12.30;;;13.50;99.90;;;;;;5040871;28;20453;-71
2021/09/06 05:20:42;;;;;;;19.73;12.80;;;13.50;99.90;;;;;;5041114;28;20184;-71
2021/09/06 05:23:08;;;;;;;22.03;12.20;;;13.40;99.90;;;;;;5047360;28;20238;-71
2021/09/06 05:25:34;;;;;;;18.50;13.57;;;13.50;99.90;;;;;;5045047;28;20435;-71
2021/09/06 05:28:00;;;;;;;22.60;13.97;;;13.50;99.90;;;;;;5041930;28;20642;-71
2021/09/06 05:30:26;;;;;;;18.00;12.10;;;13.50;99.90;;;;;;5045721;28;20472;-71
2021/09/06 05:32:52;;;;;;;19.57;12.20;;;13.50;99.90;;;;;;5035206;28;20454;-71
2021/09/06 05:35:18;;;;;;;18.43;13.83;;;13.50;99.90;;;;;;5035309;28;20411;-71
2021/09/06 05:37:43;;;;;;;18.80;13.07;;;13.50;99.90;;;;;;5035220;28;20173;-71
2021/09/06 05:40:10;;;;;;;20.20;12.47;;;13.50;99.90;;;;;;5035071;28;20539;-71
2021/09/06 05:42:36;;;;;;;18.73;14.03;;;13.50;99.90;;;;;;5039448;28;20181;-71
2021/09/06 05:45:02;;;;;;;22.33;12.87;;;13.50;99.90;;;;;;5054267;28;20769;-71
2021/09/06 05:47:27;;;;;;;18.27;12.63;;;13.60;99.90;;;;;;5038062;28;20541;-71
2021/09/06 05:49:53;;;;;;;19.13;14.20;;;13.60;99.90;;;;;;5035196;28;20400;-71
2021/09/06 05:52:18;;;;;;;19.13;13.20;;;13.60;99.90;;;;;;5036553;28;20291;-71
2021/09/06 05:54:44;;;;;;;18.43;12.50;;;13.60;99.90;;;;;;5039417;28;20176;-71
2021/09/06 05:57:09;;;;;;;19.17;13.33;;;13.60;99.90;;;;;;5053076;28;20176;-71
2021/09/06 05:59:35;;;;;;;21.60;14.00;;;13.70;99.90;;;;;;5054150;28;20200;-71
2021/09/06 06:02:00;;;;;;;20.03;13.70;;;13.80;99.90;;;;;;5034731;28;20165;-71
2021/09/06 06:04:26;;;;;;;20.67;13.50;;;13.80;99.90;;;;;;5041568;28;20188;-71
2021/09/06 06:06:52;;;;;;;21.37;13.97;;;13.90;99.90;;;;;;5043580;28;20188;-71
2021/09/06 06:09:17;;;;;;;21.47;13.67;;;13.90;99.90;;;;;;5043837;28;20177;-71
2021/09/06 06:11:43;;;;;;;24.23;15.80;;;14.00;99.90;;;;;;5039570;28;20605;-71
2021/09/06 06:14:09;;;;;;;17.63;13.07;;;14.00;99.90;;;;;;5052818;28;20195;-71
2021/09/06 06:16:35;;;;;;;18.03;14.80;;;14.10;99.90;;;;;;5051085;28;20638;-71
2021/09/06 06:19:01;;;;;;;20.20;12.33;;;14.20;99.90;;;;;;5041635;28;20432;-72
2021/09/06 06:21:27;;;;;;;19.90;14.77;;;14.20;99.90;;;;;;5046689;28;20419;-72
2021/09/06 06:23:53;;;;;;;23.90;15.00;;;14.20;99.90;;;;;;5047742;28;20510;-72
2021/09/06 06:26:19;;;;;;;21.60;13.10;;;14.30;99.90;;;;;;5040308;28;20438;-72
2021/09/06 06:28:44;;;;;;;24.97;13.40;;;14.30;99.90;;;;;;5042358;28;20510;-72
2021/09/06 06:31:10;;;;;;;22.33;13.77;;;14.30;99.90;;;;;;5037852;28;20181;-72
2021/09/06 06:33:36;;;;;;;23.07;14.87;;;14.40;99.90;;;;;;5039604;28;20580;-72
2021/09/06 06:36:03;;;;;;;24.20;12.67;;;14.50;99.90;;;;;;5039941;28;20187;-72
2021/09/06 06:38:30;;;;;;;18.60;13.00;;;14.50;99.90;;;;;;5038888;28;20168;-72
2021/09/06 06:40:56;;;;;;;18.93;13.10;;;14.60;99.90;;;;;;5038246;28;20424;-72
2021/09/06 06:43:21;;;;;;;22.23;14.50;;;14.70;99.90;;;;;;5033004;28;20489;-72
2021/09/06 06:45:47;;;;;;;20.43;13.97;;;14.70;99.90;;;;;;5033930;28;20192;-72
2021/09/06 06:48:13;;;;;;;19.93;12.70;;;14.80;99.90;;;;;;5034498;28;20173;-72
2021/09/06 06:50:38;;;;;;;19.93;12.53;;;14.90;99.90;;;;;;5033318;28;20161;-72
2021/09/06 06:53:04;;;;;;;18.70;13.77;;;14.90;99.90;;;;;;5053218;28;20195;-72
2021/09/06 06:55:30;;;;;;;21.87;14.47;;;15.00;99.90;;;;;;5043808;28;20638;-72
2021/09/06 06:57:55;;;;;;;20.67;14.80;;;15.10;99.90;;;;;;5039283;28;20180;-72
2021/09/06 07:00:21;;;;;;;24.90;13.63;;;15.20;99.90;;;;;;5039855;28;20623;-72
2021/09/06 07:02:47;;;;;;;20.33;13.23;;;15.20;99.90;;;;;;5037494;28;20215;-72
2021/09/06 07:05:13;;;;;;;20.80;14.03;;;15.30;99.90;;;;;;5038416;28;20219;-72
2021/09/06 07:07:39;;;;;;;21.20;13.60;;;15.40;99.90;;;;;;5041925;28;20434;-72
2021/09/06 07:10:07;;;;;;;24.07;14.30;;;15.50;99.90;;;;;;5035724;28;20426;-72
2021/09/06 07:12:33;;;;;;;20.73;13.20;;;15.50;99.90;;;;;;5033371;28;20509;-72
2021/09/06 07:14:58;;;;;;;20.00;13.83;;;15.60;99.90;;;;;;5032796;28;20399;-72
2021/09/06 07:17:24;;;;;;;18.83;12.87;;;15.70;99.90;;;;;;5032749;28;20502;-72
2021/09/06 07:19:49;;;;;;;23.50;14.93;;;15.80;99.90;;;;;;5037441;28;20176;-72
2021/09/06 07:22:15;;;;;;;20.53;14.77;;;15.80;99.90;;;;;;5038855;28;20184;-72
2021/09/06 07:24:40;;;;;;;17.57;12.67;;;15.90;99.90;;;;;;5044715;28;20191;-72
2021/09/06 07:27:06;;;;;;;20.10;13.97;;;16.00;99.90;;;;;;5034832;28;20186;-72
2021/09/06 07:29:31;;;;;;;18.47;13.70;;;16.10;99.90;;;;;;5036303;28;20180;-72
2021/09/06 07:31:57;;;;;;;18.20;12.47;;;16.10;99.90;;;;;;5043359;28;20203;-72
2021/09/06 07:34:23;;;;;;;22.80;15.20;;;16.20;99.90;;;;;;5043175;28;20687;-72
2021/09/06 07:36:48;;;;;;;17.93;12.83;;;16.30;99.90;;;;;;5035687;28;20262;-72
2021/09/06 07:39:16;;;;;;;20.53;14.27;;;16.40;99.90;;;;;;5034625;28;20187;-72
2021/09/06 07:41:44;;;;;;;19.03;12.27;;;16.50;99.90;;;;;;5045300;28;20218;-72
2021/09/06 07:44:10;;;;;;;17.70;12.70;;;16.60;99.90;;;;;;5032765;28;20419;-72
2021/09/06 07:46:35;;;;;;;18.77;11.93;;;16.70;99.90;;;;;;5037582;28;20426;-72
2021/09/06 07:49:01;;;;;;;18.70;12.97;;;16.80;99.90;;;;;;5043681;28;20180;-72
2021/09/06 07:51:26;;;;;;;24.63;13.93;;;16.90;99.90;;;;;;5040952;28;20196;-72
2021/09/06 07:53:52;;;;;;;19.73;14.13;;;17.00;99.90;;;;;;5037725;28;20176;-72
2021/09/06 07:56:17;;;;;;;17.80;12.57;;;17.10;99.90;;;;;;5038171;28;20189;-72
2021/09/06 07:58:43;;;;;;;19.87;12.10;;;17.20;99.90;;;;;;5050605;28;20559;-72
2021/09/06 08:01:09;;;;;;;22.33;13.97;;;17.20;99.90;;;;;;5036800;28;20670;-72
2021/09/06 08:03:34;;;;;;;20.37;12.20;;;17.30;99.90;;;;;;5044887;28;20230;-72
2021/09/06 08:06:00;;;;;;;23.83;13.70;;;17.40;99.90;;;;;;5039615;28;20176;-72
2021/09/06 08:08:25;;;;;;;21.57;13.87;;;17.40;99.90;;;;;;5037759;28;20180;-72
2021/09/06 08:10:51;;;;;;;17.93;12.97;;;17.50;99.90;;;;;;5041348;28;20724;-72
2021/09/06 08:13:16;;;;;;;18.73;12.73;;;17.50;99.90;;;;;;5051085;28;20548;-72
2021/09/06 08:15:42;;;;;;;23.47;13.27;;;17.60;99.90;;;;;;5038749;28;20172;-72
2021/09/06 08:18:08;;;;;;;18.20;13.17;;;17.70;99.90;;;;;;5040842;28;20658;-72
2021/09/06 08:20:34;;;;;;;20.10;13.27;;;17.80;99.90;;;;;;5035715;28;20176;-72
2021/09/06 08:23:00;;;;;;;19.67;11.70;;;17.90;99.90;;;;;;5035075;28;20184;-72
2021/09/06 08:25:25;;;;;;;18.00;12.00;;;17.90;99.90;;;;;;5031864;28;20479;-73
2021/09/06 08:27:51;;;;;;;17.93;12.30;;;18.00;99.90;;;;;;5039107;28;20270;-73
2021/09/06 08:30:18;;;;;;;17.97;12.47;;;18.10;99.90;;;;;;5045424;28;20181;-73
2021/09/06 08:32:44;;;;;;;16.50;11.10;;;18.20;99.90;;;;;;5043576;28;20323;-73
2021/09/06 08:35:11;;;;;;;16.07;11.63;;;18.30;99.90;;;;;;5044958;28;20933;-73
2021/09/06 08:37:37;;;;;;;19.20;12.00;;;18.40;99.90;;;;;;5037333;28;20419;-73
2021/09/06 08:40:04;;;;;;;17.37;10.97;;;18.50;99.90;;;;;;5042741;28;20418;-73
2021/09/06 08:42:30;;;;;;;17.70;11.77;;;18.50;99.90;;;;;;5042520;28;20427;-73
2021/09/06 08:44:56;;;;;;;15.73;10.87;;;18.60;99.90;;;;;;5048574;28;20415;-73
2021/09/06 08:47:22;;;;;;;18.33;10.93;;;18.70;99.90;;;;;;5038120;28;20550;-73
2021/09/06 08:49:49;;;;;;;14.93;10.60;;;18.70;99.90;;;;;;5035800;28;20431;-73
2021/09/06 08:52:14;;;;;;;17.13;11.00;;;18.80;99.90;;;;;;5041459;28;20196;-73
2021/09/06 08:54:41;;;;;;;18.20;11.40;;;18.80;99.90;;;;;;5047498;28;20438;-73
2021/09/06 08:57:07;;;;;;;16.27;11.23;;;18.90;99.90;;;;;;5041098;28;20169;-73
2021/09/06 08:59:33;;;;;;;15.13;11.07;;;19.00;99.90;;;;;;5042998;28;20533;-73
2021/09/06 09:01:58;;;;;;;15.93;10.60;;;19.20;99.90;;;;;;5040912;28;20441;-73
2021/09/06 09:04:26;;;;;;;14.47;12.20;;;19.20;99.90;;;;;;5047052;28;20234;-73
2021/09/06 09:06:55;;;;;;;21.30;11.33;;;19.30;99.90;;;;;;5045403;28;20173;-73
2021/09/06 09:09:26;;;;;;;16.37;12.30;;;19.50;99.90;;;;;;5044408;28;20422;-73
2021/09/06 09:14:50;;;;;;;18.40;11.80;;;19.80;99.90;;;;;;5075731;28;20553;-72
2021/09/06 09:17:18;;;;;;;16.60;11.80;;;20.60;99.90;;;;;;5082327;28;20483;-72
2021/09/06 09:19:45;;;;;;;15.30;11.43;;;21.10;99.90;;;;;;5074365;28;20503;-72
2021/09/06 09:22:13;;;;;;;14.33;10.83;;;21.50;99.90;;;;;;5071220;28;20451;-72
2021/09/06 09:24:40;;;;;;;18.23;11.40;;;21.80;99.90;;;;;;5078656;28;20667;-72
2021/09/06 09:27:09;;;;;;;12.90;8.70;;;22.10;99.90;;;;;;5085031;28;20779;-72
2021/09/06 09:29:36;;;;;;;15.60;9.60;;;22.20;99.90;;;;;;5085145;28;20421;-72
2021/09/06 09:32:06;;;;;;;15.20;8.50;;;22.20;99.90;;;;;;5083872;28;20459;-72
2021/09/06 09:34:37;;;;;;;18.20;9.40;;;22.30;99.90;;;;;;5086984;28;20464;-72
2021/09/06 09:37:03;;;;;;;12.80;9.00;;;22.20;99.90;;;;;;5081839;28;20428;-72
2021/09/06 09:39:31;;;;;;;15.00;9.57;;;22.20;99.90;;;;;;5071872;28;20969;-72
2021/09/06 09:42:12;;;;;;;12.50;8.97;;;22.10;99.90;;;;;;5069700;28;20386;-72
2021/09/06 09:44:55;;;;;;;13.93;8.13;;;22.10;99.90;;;;;;5069204;28;20421;-72
2021/09/06 09:47:23;;;;;;;14.17;8.23;;;22.10;99.90;;;;;;5086737;28;20432;-72
2021/09/06 09:49:50;;;;;;;18.83;8.70;;;22.10;99.90;;;;;;5089169;28;20445;-72
2021/09/06 09:52:18;;;;;;;18.13;8.60;;;22.10;99.90;;;;;;5088158;28;20409;-72
2021/09/06 09:54:45;;;;;;;12.40;8.30;;;22.10;99.90;;;;;;5086450;28;20443;-72
2021/09/06 09:57:12;;;;;;;12.80;8.73;;;22.10;99.90;;;;;;5080233;28;20519;-72
2021/09/06 09:59:39;;;;;;;14.63;11.03;;;22.00;99.90;;;;;;5082987;28;20452;-72
2021/09/06 10:02:10;;;;;;;13.83;10.20;;;22.00;99.90;;;;;;5078645;28;20613;-72
2021/09/06 10:04:43;;;;;;;12.00;8.23;;;22.00;99.90;;;;;;5074797;28;20429;-72
2021/09/06 10:07:10;;;;;;;10.70;7.93;;;22.10;99.90;;;;;;5080355;28;20417;-72
2021/09/06 10:09:44;;;;;;;10.67;8.27;;;22.10;99.90;;;;;;5070567;28;20484;-72
2021/09/06 10:12:17;;;;;;;9.97;6.73;;;22.10;99.90;;;;;;5072678;28;20509;-72
2021/09/06 10:17:47;;;;;;;9.20;7.20;;;22.10;99.90;;;;;;5086113;28;20572;-72
2021/09/06 10:23:08;;;;;;;9.70;7.30;;;22.10;99.90;;;;;;5103743;27;20679;-72
2021/09/06 10:25:36;;;;;;;9.97;6.97;;;22.00;99.90;;;;;;5069607;28;20412;-72
2021/09/06 10:28:04;;;;;;;8.77;7.20;;;22.00;99.90;;;;;;5060544;28;20463;-72
2021/09/06 10:30:51;;;;;;;9.63;6.93;;;22.00;99.90;;;;;;5070213;28;20458;-72
2021/09/06 10:33:28;;;;;;;8.27;5.73;;;21.90;99.90;;;;;;5041392;28;20935;-72
2021/09/06 10:38:48;;;;;;;9.60;6.80;;;21.90;99.90;;;;;;5048619;28;20529;-72
2021/09/06 10:41:17;;;;;;;9.10;7.60;;;21.80;99.90;;;;;;5044883;28;20454;-72
2021/09/06 10:43:46;;;;;;;8.93;7.23;;;21.80;99.90;;;;;;5041185;28;20414;-73
2021/09/06 10:46:12;;;;;;;7.83;6.17;;;21.80;99.90;;;;;;5042027;28;20426;-73
2021/09/06 10:48:38;;;;;;;8.80;7.40;;;21.70;99.90;;;;;;5049343;28;20406;-73
2021/09/06 10:51:04;;;;;;;10.43;7.60;;;21.70;99.90;;;;;;5047062;28;20433;-73
2021/09/06 10:53:30;;;;;;;12.40;7.50;;;21.70;99.90;;;;;;5044289;28;20442;-73
2021/09/06 10:55:57;;;;;;;11.90;7.00;;;21.70;99.90;;;;;;5047867;28;20180;-72
2021/09/06 10:58:26;;;;;;;8.77;7.30;;;21.60;99.90;;;;;;5047206;28;20540;-72
2021/09/06 11:00:55;;;;;;;10.97;8.07;;;21.60;99.90;;;;;;5042415;28;20437;-71
2021/09/06 11:03:22;;;;;;;10.47;7.90;;;21.60;99.90;;;;;;5042956;28;20530;-72
2021/09/06 11:05:53;;;;;;;9.80;7.40;;;21.60;99.90;;;;;;5046586;28;20517;-72
2021/09/06 11:08:28;;;;;;;13.63;7.90;;;21.50;99.90;;;;;;5042307;28;20470;-72
2021/09/06 11:10:56;;;;;;;8.70;6.70;;;21.50;99.90;;;;;;5043335;28;20483;-72
2021/09/06 11:13:23;;;;;;;7.10;5.67;;;21.40;99.90;;;;;;5044428;28;20435;-72
2021/09/06 11:15:49;;;;;;;10.97;7.63;;;21.40;99.90;;;;;;5044568;28;20446;-72
2021/09/06 11:18:14;;;;;;;5.90;5.30;;;21.30;99.90;;;;;;5046272;28;20466;-72
2021/09/06 11:20:44;;;;;;;8.90;5.70;;;21.30;99.90;;;;;;5047620;28;21211;-72
2021/09/06 11:23:10;;;;;;;7.27;5.60;;;21.30;99.90;;;;;;5047779;28;20251;-72
2021/09/06 11:25:38;;;;;;;7.73;5.90;;;21.30;99.90;;;;;;5045225;28;21242;-72
2021/09/06 11:28:11;;;;;;;7.20;5.90;;;21.40;99.90;;;;;;5043408;28;20258;-72
2021/09/06 11:30:40;;;;;;;12.77;7.40;;;21.40;99.90;;;;;;5045531;28;20556;-72
2021/09/06 11:33:09;;;;;;;6.93;6.23;;;21.40;99.90;;;;;;5046687;28;20794;-72
2021/09/06 11:35:36;;;;;;;6.80;5.47;;;21.40;99.90;;;;;;5046757;28;20430;-72
2021/09/06 11:38:03;;;;;;;7.40;5.60;;;21.40;99.90;;;;;;5040789;28;20808;-72
2021/09/06 11:40:29;;;;;;;8.73;6.23;;;21.50;99.90;;;;;;5039921;28;20805;-72
2021/09/06 11:42:56;;;;;;;10.13;6.23;;;21.40;99.90;;;;;;5046382;28;20422;-72
2021/09/06 11:45:23;;;;;;;7.80;6.00;;;21.50;99.90;;;;;;5047215;28;20922;-72
2021/09/06 11:47:49;;;;;;;8.10;6.70;;;21.50;99.90;;;;;;5045953;28;20510;-72
2021/09/06 11:50:15;;;;;;;10.93;7.07;;;21.50;99.90;;;;;;5030287;28;20522;-72
2021/09/06 11:52:43;;;;;;;10.07;6.83;;;21.50;99.90;;;;;;5033176;28;21018;-72
2021/09/06 11:55:16;;;;;;;11.07;8.60;;;21.60;99.90;;;;;;5031408;28;20810;-72
2021/09/06 11:57:42;;;;;;;9.50;7.40;;;21.60;99.90;;;;;;5031340;28;20495;-72
2021/09/06 12:00:09;;;;;;;8.50;7.33;;;21.70;99.90;;;;;;5028848;28;20972;-72
2021/09/06 12:02:45;;;;;;;9.70;6.53;;;21.80;99.90;;;;;;5026916;28;20207;-72
2021/09/06 12:05:15;;;;;;;12.30;8.07;;;21.70;99.90;;;;;;5031740;28;20438;-72
2021/09/06 12:07:52;;;;;;;12.57;7.40;;;21.70;99.90;;;;;;5033155;28;20477;-72
2021/09/06 12:10:34;;;;;;;10.30;7.23;;;21.80;99.90;;;;;;5033755;28;20439;-72
2021/09/06 12:13:05;;;;;;;9.07;6.97;;;21.80;99.90;;;;;;5029984;28;20444;-72
2021/09/06 12:15:35;;;;;;;7.07;5.87;;;21.80;99.90;;;;;;5033125;28;20439;-72
2021/09/06 12:20:46;;;;;;;8.93;6.70;;;21.90;99.90;;;;;;5069199;27;22133;-73
2021/09/06 12:23:13;;;;;;;10.27;7.17;;;21.90;99.90;;;;;;5070826;28;20443;-73
2021/09/06 12:25:41;;;;;;;11.67;8.60;;;22.00;99.90;;;;;;5067360;28;20179;-73
2021/09/06 12:28:11;;;;;;;12.17;8.07;;;22.10;99.90;;;;;;5067612;28;20423;-73
2021/09/06 12:30:37;;;;;;;10.50;8.13;;;22.20;99.90;;;;;;5072687;28;20460;-73
2021/09/06 12:33:03;;;;;;;9.70;7.43;;;22.10;99.90;;;;;;5061782;28;20475;-73
2021/09/06 12:35:29;;;;;;;12.87;7.80;;;22.10;99.90;;;;;;5068550;28;20402;-74
2021/09/06 12:37:54;;;;;;;9.40;7.80;;;22.00;99.90;;;;;;5068599;28;20179;-73
2021/09/06 12:40:20;;;;;;;11.30;8.00;;;22.00;99.90;;;;;;5068429;28;20191;-73
2021/09/06 12:42:50;;;;;;;10.70;8.00;;;21.90;99.90;;;;;;5062556;28;20274;-73